Time;durP1;ratioP1;P1;durP2;ratioP2;P2;SDS_P1;SDS_P2;PMS_P1;PMS_P2;Temp;Humidity;BMP_temperature;BMP_pressure;BME280_temperature;BME280_humidity;BME280_pressure;Samples;Min_cycle;Max_cycle;Signal;HPM_P1;HPM_P2
2022/01/20 00:01:59;;;;;;;30.70;28.00;;;;;;;22.22;24.11;95695.41;7282808;19;137400;-53
2022/01/20 00:04:50;;;;;;;30.13;27.53;;;;;;;22.21;24.29;95697.28;7295138;19;138086;-55
2022/01/20 00:08:05;;;;;;;29.13;26.63;;;;;;;22.22;24.18;95687.44;7290297;19;137460;-55
2022/01/20 00:23:42;;;;;;;26.63;24.23;;;;;;;22.22;24.24;95703.41;7287784;19;136794;-53
2022/01/20 00:26:09;;;;;;;27.80;25.40;;;;;;;22.21;23.51;95688.50;7300080;19;137207;-52
2022/01/20 00:38:44;;;;;;;29.83;27.23;;;;;;;22.21;23.71;95675.19;7299903;19;137091;-55
2022/01/20 00:41:15;;;;;;;31.30;28.60;;;;;;;22.19;23.69;95667.50;7302680;19;136867;-52
2022/01/20 00:43:44;;;;;;;38.47;34.93;;;;;;;22.18;23.95;95665.91;7295539;19;139410;-54
2022/01/20 00:46:10;;;;;;;34.70;31.53;;;;;;;22.19;24.04;95658.72;7297059;19;140759;-54
2022/01/20 00:48:36;;;;;;;37.50;34.13;;;;;;;22.19;23.88;95669.38;7299972;19;138520;-55
2022/01/20 00:51:03;;;;;;;38.03;34.63;;;;;;;22.17;24.03;95660.84;7298897;19;136814;-54
2022/01/20 00:53:28;;;;;;;35.27;31.97;;;;;;;22.18;24.00;95660.59;7300599;19;136867;-53
2022/01/20 00:55:54;;;;;;;33.47;30.47;;;;;;;22.18;24.06;95662.47;7286635;19;137712;-54
2022/01/20 00:58:19;;;;;;;32.27;29.40;;;;;;;22.18;24.21;95654.47;7299650;19;137653;-53
2022/01/20 01:00:45;;;;;;;34.50;31.53;;;;;;;22.18;23.39;95665.91;7300876;19;136897;-54
2022/01/20 01:03:10;;;;;;;32.40;29.40;;;;;;;22.17;23.54;95660.84;7300931;19;136800;-54
2022/01/20 01:05:44;;;;;;;37.00;33.60;;;;;;;22.18;23.72;95657.16;7297395;19;137155;-54
2022/01/20 01:08:11;;;;;;;33.10;30.13;;;;;;;22.18;23.44;95659.81;7295257;19;138086;-53
2022/01/20 01:10:39;;;;;;;30.83;28.13;;;;;;;22.16;23.56;95653.94;7299164;19;136878;-56
2022/01/20 01:13:10;;;;;;;33.83;30.83;;;;;;;22.16;23.71;95651.28;7298284;19;137027;-53
2022/01/20 01:15:41;;;;;;;32.60;29.67;;;;;;;22.17;23.35;95659.00;7298151;19;138471;-53
2022/01/20 01:23:36;;;;;;;32.60;29.70;;;;;;;22.17;23.71;95651.03;7300969;19;136767;-53
2022/01/20 01:26:04;;;;;;;31.50;28.80;;;;;;;22.16;23.65;95636.09;7300112;19;138832;-54
2022/01/20 01:28:31;;;;;;;35.60;32.53;;;;;;;22.17;23.64;95637.72;7286952;19;137439;-54
2022/01/20 01:33:37;;;;;;;30.43;27.83;;;;;;;22.16;23.81;95640.63;7301623;19;138835;-56
2022/01/20 01:36:06;;;;;;;32.77;29.87;;;;;;;22.16;23.71;95632.66;7297609;19;137601;-57
2022/01/20 01:38:38;;;;;;;36.33;33.13;;;;;;;22.16;23.37;95630.00;7300766;19;137322;-53
2022/01/20 01:41:11;;;;;;;36.37;33.17;;;;;;;22.15;23.87;95625.75;7288513;19;138921;-54
2022/01/20 01:43:40;;;;;;;31.77;28.77;;;;;;;22.15;23.89;95623.09;7299122;19;137024;-53
2022/01/20 01:46:06;;;;;;;33.17;30.33;;;;;;;22.16;22.86;95622.00;7299614;19;137172;-55
2022/01/20 01:48:32;;;;;;;32.87;30.10;;;;;;;22.14;23.46;95614.31;7299238;19;137503;-54
2022/01/20 01:50:59;;;;;;;31.60;28.80;;;;;;;22.14;23.64;95613.53;7284829;19;137082;-55
2022/01/20 01:53:25;;;;;;;37.83;34.43;;;;;;;22.15;23.70;95623.09;7299485;19;136733;-55
2022/01/20 01:55:51;;;;;;;35.80;32.50;;;;;;;22.14;23.74;95611.66;7297845;19;137007;-53
2022/01/20 01:58:16;;;;;;;34.10;31.17;;;;;;;22.12;23.36;95600.50;7297539;19;137467;-54
2022/01/20 02:00:43;;;;;;;35.20;32.00;;;;;;;22.14;23.62;95609.00;7298298;19;137535;-53
2022/01/20 02:03:08;;;;;;;35.40;32.17;;;;;;;22.14;23.19;95605.53;7286732;19;137167;-53
2022/01/20 02:05:42;;;;;;;38.80;35.30;;;;;;;22.14;23.26;95600.22;7296618;19;136948;-53
2022/01/20 02:19:13;;;;;;;34.70;31.60;;;;;;;22.14;23.50;95586.91;7299066;19;137850;-53
2022/01/20 02:21:52;;;;;;;38.80;35.50;;;;;;;22.13;23.14;95585.34;7297611;19;138716;-54
2022/01/20 02:24:19;;;;;;;36.30;33.10;;;;;;;22.13;23.40;95583.47;7284048;19;137338;-54
2022/01/20 02:26:45;;;;;;;43.70;39.90;;;;;;;22.14;23.27;95573.59;7297191;19;137190;-54
2022/01/20 02:29:12;;;;;;;43.70;39.83;;;;;;;22.13;23.02;95572.03;7297334;19;138771;-53
2022/01/20 02:31:37;;;;;;;50.97;46.47;;;;;;;22.11;23.12;95580.28;7298280;19;137937;-53
2022/01/20 02:34:03;;;;;;;47.10;42.83;;;;;;;22.12;23.29;95570.44;7286622;19;140500;-53
2022/01/20 02:36:30;;;;;;;51.43;46.80;;;;;;;22.12;23.84;95565.13;7295127;19;137540;-56
2022/01/20 02:39:02;;;;;;;53.77;48.83;;;;;;;22.12;23.13;95567.78;7296587;19;137115;-53
2022/01/20 02:46:56;;;;;;;56.30;51.30;;;;;;;22.12;23.33;95559.78;7283914;19;137384;-54
2022/01/20 02:49:21;;;;;;;58.43;53.30;;;;;;;22.11;23.29;95555.56;7296261;19;137427;-54
2022/01/20 02:51:53;;;;;;;54.20;49.40;;;;;;;22.11;23.64;95556.34;7297466;19;136924;-53
2022/01/20 02:54:20;;;;;;;60.00;54.73;;;;;;;22.11;23.11;95563.53;7297012;19;136981;-53
2022/01/20 02:56:45;;;;;;;54.00;49.37;;;;;;;22.11;23.24;95559.00;7280268;19;137768;-53
2022/01/20 02:59:11;;;;;;;60.97;55.67;;;;;;;22.11;23.05;95553.69;7296226;19;137846;-52
2022/01/20 03:01:37;;;;;;;60.30;54.90;;;;;;;22.11;23.19;95550.22;7296618;19;137222;-54
2022/01/20 03:04:03;;;;;;;61.00;55.60;;;;;;;22.10;23.60;95552.09;7296139;19;137545;-52
2022/01/20 03:06:29;;;;;;;50.33;46.00;;;;;;;22.10;23.54;95546.00;7293264;19;137171;-53
2022/01/20 03:08:54;;;;;;;58.17;53.07;;;;;;;22.11;23.54;95547.56;7282895;19;137506;-53
2022/01/20 03:11:20;;;;;;;51.97;47.40;;;;;;;22.10;23.54;95546.78;7295539;19;136921;-53
2022/01/20 03:13:46;;;;;;;54.30;49.60;;;;;;;22.11;23.35;95548.38;7295907;19;136865;-54
2022/01/20 03:16:11;;;;;;;54.20;49.30;;;;;;;22.10;23.23;95543.34;7294323;19;137873;-54
2022/01/20 03:18:37;;;;;;;51.83;47.13;;;;;;;22.10;23.39;95546.00;7282857;19;137020;-53
2022/01/20 03:21:02;;;;;;;51.17;46.67;;;;;;;22.10;23.01;95540.66;7297671;19;137451;-54
2022/01/20 03:23:28;;;;;;;46.60;42.67;;;;;;;22.11;23.04;95542.25;7294877;19;137038;-53
2022/01/20 03:25:54;;;;;;;46.83;42.63;;;;;;;22.11;23.00;95539.59;7295375;19;138123;-53
2022/01/20 03:28:19;;;;;;;45.60;41.50;;;;;;;22.10;23.16;95538.81;7296620;19;139117;-53
2022/01/20 03:30:45;;;;;;;42.93;39.17;;;;;;;22.10;23.25;95535.34;7281982;19;137084;-53
2022/01/20 03:33:10;;;;;;;47.03;42.93;;;;;;;22.11;23.51;95552.91;7294839;19;137003;-53
2022/01/20 03:35:36;;;;;;;42.97;38.97;;;;;;;22.10;23.30;95536.13;7293764;19;138857;-53
2022/01/20 03:38:02;;;;;;;33.97;30.87;;;;;;;22.11;23.25;95537.72;7295440;19;137125;-53
2022/01/20 03:40:28;;;;;;;36.27;32.87;;;;;;;22.08;23.49;95532.97;7281641;19;136928;-53
2022/01/20 03:42:53;;;;;;;30.00;27.33;;;;;;;22.11;23.40;95528.94;7294933;19;137170;-53
2022/01/20 03:45:19;;;;;;;27.97;25.67;;;;;;;22.12;23.00;95533.19;7295164;19;138137;-53
2022/01/20 03:47:45;;;;;;;27.33;24.73;;;;;;;22.10;22.59;95530.81;7294279;19;137384;-53
2022/01/20 03:50:59;;;;;;;27.57;25.03;;;;;;;22.16;23.26;95526.22;7293933;19;137265;-53
2022/01/20 03:52:56;;;;;;;25.27;23.07;;;;;;;22.16;22.93;95515.56;7281584;19;137388;-53
2022/01/20 03:55:22;;;;;;;24.50;22.40;;;;;;;22.16;23.17;95524.34;7298038;19;137237;-54
2022/01/20 03:57:47;;;;;;;23.47;21.40;;;;;;;22.16;22.98;95513.69;7301439;19;137289;-53
2022/01/20 04:00:13;;;;;;;30.03;27.27;;;;;;;22.16;23.25;95519.00;7300773;19;137035;-54
2022/01/20 04:02:39;;;;;;;24.70;22.50;;;;;;;22.18;22.82;95521.41;7287292;19;136756;-53
2022/01/20 04:05:05;;;;;;;26.93;24.57;;;;;;;22.22;22.88;95522.41;7299731;19;137432;-53
2022/01/20 04:07:31;;;;;;;27.60;25.20;;;;;;;22.21;22.54;95518.16;7302270;19;137827;-53
2022/01/20 04:09:56;;;;;;;32.73;29.80;;;;;;;22.23;23.11;95529.31;7301759;19;136832;-53
2022/01/20 04:12:22;;;;;;;33.57;30.70;;;;;;;22.20;22.82;95520.03;7300946;19;137578;-53
2022/01/20 04:14:48;;;;;;;31.17;28.43;;;;;;;22.20;23.25;95521.91;7288356;19;137392;-53
2022/01/20 04:17:20;;;;;;;28.83;26.23;;;;;;;22.19;23.00;95521.13;7297888;19;137617;-55
2022/01/20 04:19:46;;;;;;;27.30;25.00;;;;;;;22.23;23.57;95518.66;7300813;19;138204;-53
2022/01/20 04:22:13;;;;;;;27.33;25.00;;;;;;;22.24;23.40;95520.25;7300433;19;138146;-53
2022/01/20 04:24:39;;;;;;;27.60;25.00;;;;;;;22.23;23.50;95521.34;7287452;19;137378;-55
2022/01/20 04:27:05;;;;;;;27.53;25.23;;;;;;;22.23;23.66;95518.66;7301354;19;138079;-57
2022/01/20 04:29:32;;;;;;;32.50;29.60;;;;;;;22.26;23.34;95512.75;7300590;19;137165;-53
2022/01/20 04:31:58;;;;;;;28.07;25.57;;;;;;;22.30;23.88;95516.44;7300158;19;136863;-53
2022/01/20 04:34:24;;;;;;;29.23;26.77;;;;;;;22.30;23.60;95519.09;7300944;19;137849;-53
2022/01/20 04:36:52;;;;;;;29.90;27.30;;;;;;;22.42;23.60;95508.00;7270107;19;139733;-54
2022/01/20 04:39:21;;;;;;;26.60;24.30;;;;;;;22.45;23.44;95516.19;7291883;19;137556;-54
2022/01/20 04:41:47;;;;;;;26.77;24.17;;;;;;;22.45;23.66;95510.09;7289579;19;137038;-55
2022/01/20 04:44:30;;;;;;;27.47;25.07;;;;;;;22.43;23.54;95507.72;7289370;19;137339;-55
2022/01/20 04:47:05;;;;;;;34.93;31.73;;;;;;;22.47;23.98;95498.06;7280174;19;137733;-54
2022/01/20 04:57:43;;;;;;;31.50;28.70;;;;;;;22.57;23.63;95502.44;7284655;19;138904;-54
2022/01/20 05:00:09;;;;;;;35.37;32.20;;;;;;;22.53;23.24;95506.78;7300168;19;136971;-55
2022/01/20 05:02:34;;;;;;;32.27;29.07;;;;;;;22.51;23.45;95515.06;7296260;19;137110;-53
2022/01/20 05:05:00;;;;;;;30.53;27.83;;;;;;;22.49;24.25;95511.88;7294657;19;136900;-53
2022/01/20 05:07:28;;;;;;;28.87;26.27;;;;;;;22.44;23.48;95508.50;7289938;19;138986;-53
2022/01/20 05:09:56;;;;;;;26.73;24.40;;;;;;;22.39;23.54;95506.72;7281409;19;137917;-56
2022/01/20 05:12:28;;;;;;;29.37;26.77;;;;;;;22.36;23.80;95514.50;7296136;19;136734;-53
2022/01/20 05:14:54;;;;;;;29.00;26.47;;;;;;;22.35;23.60;95510.25;7296047;19;137942;-53
2022/01/20 05:17:20;;;;;;;26.27;23.87;;;;;;;22.33;23.28;95510.53;7294056;19;138493;-52
2022/01/20 05:19:46;;;;;;;29.97;27.37;;;;;;;22.32;23.15;95519.59;7285088;19;137722;-51
2022/01/20 05:22:11;;;;;;;28.87;26.40;;;;;;;22.30;23.29;95516.44;7299603;19;136737;-53
2022/01/20 05:24:36;;;;;;;25.53;23.43;;;;;;;22.30;23.02;95515.63;7298245;19;137834;-52
2022/01/20 05:27:02;;;;;;;26.70;24.27;;;;;;;22.30;23.38;95518.28;7299157;19;137442;-53
2022/01/20 05:29:28;;;;;;;28.90;26.10;;;;;;;22.29;23.78;95522.03;7298768;19;136859;-52
2022/01/20 05:31:53;;;;;;;28.90;26.50;;;;;;;22.26;23.55;95518.09;7284099;19;136989;-55
2022/01/20 05:34:19;;;;;;;26.10;23.80;;;;;;;22.27;23.26;95518.88;7299214;19;136797;-52
2022/01/20 05:36:47;;;;;;;27.57;25.07;;;;;;;22.26;23.15;95522.63;7297832;19;136916;-52
2022/01/20 05:39:14;;;;;;;29.60;26.90;;;;;;;22.25;22.96;95518.38;7298941;19;136892;-52
2022/01/20 05:41:39;;;;;;;29.67;27.17;;;;;;;22.24;23.92;95530.09;7284604;19;137158;-52
2022/01/20 05:44:05;;;;;;;27.50;25.20;;;;;;;22.23;23.35;95520.53;7298552;19;137839;-52
2022/01/20 05:46:38;;;;;;;28.00;25.57;;;;;;;22.22;23.61;95509.09;7297961;19;136982;-53
2022/01/20 05:49:08;;;;;;;28.27;25.67;;;;;;;22.23;23.69;95517.88;7298495;19;137383;-52
2022/01/20 05:51:38;;;;;;;26.37;24.07;;;;;;;22.21;23.53;95510.97;7298051;19;137198;-54
2022/01/20 05:54:05;;;;;;;25.83;23.53;;;;;;;22.22;23.45;95514.44;7283919;19;137820;-53
2022/01/20 05:56:31;;;;;;;24.57;22.50;;;;;;;22.22;23.35;95511.78;7298002;19;137894;-53
2022/01/20 05:58:57;;;;;;;26.00;23.80;;;;;;;22.23;23.46;95509.91;7297947;19;136797;-56
2022/01/20 06:01:22;;;;;;;25.17;22.97;;;;;;;22.22;23.40;95517.09;7296530;19;137050;-56
2022/01/20 06:03:48;;;;;;;23.90;21.73;;;;;;;22.24;22.84;95519.47;7284384;19;138277;-52
2022/01/20 06:06:14;;;;;;;25.60;23.30;;;;;;;22.23;22.96;95520.53;7295638;19;137687;-54
2022/01/20 06:08:44;;;;;;;25.77;23.47;;;;;;;22.23;23.08;95520.53;7298133;19;138054;-53
2022/01/20 06:11:10;;;;;;;23.20;21.20;;;;;;;22.23;23.37;95521.34;7298508;19;138325;-54
2022/01/20 06:13:36;;;;;;;24.07;21.97;;;;;;;22.23;23.33;95516.00;7297386;19;137646;-55
2022/01/20 06:16:03;;;;;;;23.90;21.83;;;;;;;22.22;23.28;95517.09;7282641;19;137601;-52
2022/01/20 06:18:28;;;;;;;23.90;21.73;;;;;;;22.23;22.88;95509.91;7295917;19;137049;-52
2022/01/20 06:20:55;;;;;;;23.13;21.03;;;;;;;22.22;22.96;95522.41;7296636;19;136933;-53
2022/01/20 06:23:21;;;;;;;22.73;20.83;;;;;;;22.21;22.75;95518.16;7297061;19;137230;-54
2022/01/20 06:25:47;;;;;;;22.30;20.40;;;;;;;22.22;23.46;95522.41;7283891;19;138993;-52
2022/01/20 06:28:13;;;;;;;22.63;20.73;;;;;;;22.24;23.41;95520.25;7297569;19;137469;-52
2022/01/20 06:30:40;;;;;;;21.97;20.00;;;;;;;22.23;22.61;95526.66;7296608;19;136884;-53
2022/01/20 06:33:05;;;;;;;23.83;21.63;;;;;;;22.24;23.31;95530.09;7296200;19;137403;-52
2022/01/20 06:35:32;;;;;;;23.30;21.30;;;;;;;22.24;23.10;95522.91;7297252;19;138182;-52
2022/01/20 06:37:58;;;;;;;26.40;24.10;;;;;;;22.24;22.93;95525.56;7283625;19;137317;-53
2022/01/20 06:40:24;;;;;;;29.30;26.70;;;;;;;22.24;23.22;95533.56;7296400;19;137655;-52
2022/01/20 06:42:50;;;;;;;26.87;24.57;;;;;;;22.25;23.50;95521.84;7296258;19;137248;-52
2022/01/20 06:45:18;;;;;;;27.23;24.83;;;;;;;22.25;23.12;95521.84;7296582;19;137390;-53
2022/01/20 06:47:44;;;;;;;29.47;26.97;;;;;;;22.25;23.18;95521.84;7282980;19;137107;-53
2022/01/20 06:50:11;;;;;;;26.53;24.23;;;;;;;22.27;23.14;95517.00;7297367;19;137093;-52
2022/01/20 06:52:38;;;;;;;27.23;24.93;;;;;;;22.27;23.35;95519.66;7296473;19;137016;-53
2022/01/20 06:55:05;;;;;;;31.47;28.87;;;;;;;22.27;22.52;95517.00;7295821;19;137249;-52
2022/01/20 06:57:35;;;;;;;30.00;27.53;;;;;;;22.44;23.22;95508.50;7294052;19;136838;-52
2022/01/20 07:00:01;;;;;;;29.03;26.47;;;;;;;22.93;21.98;95508.00;7282135;19;136885;-53
2022/01/20 07:02:26;;;;;;;28.33;26.03;;;;;;;23.32;21.42;95512.88;7295458;19;137394;-54
2022/01/20 07:04:52;;;;;;;30.20;27.57;;;;;;;23.58;21.81;95510.56;7295740;19;138146;-53
2022/01/20 07:07:18;;;;;;;27.50;25.10;;;;;;;23.70;21.24;95523.41;7293288;19;136734;-52
2022/01/20 07:09:45;;;;;;;28.27;25.87;;;;;;;23.66;21.88;95520.53;7281729;19;137016;-51
2022/01/20 07:12:10;;;;;;;27.03;24.53;;;;;;;23.67;21.74;95516.78;7296870;19;137848;-51
2022/01/20 07:14:37;;;;;;;27.47;25.20;;;;;;;23.68;21.52;95517.56;7296577;19;137438;-53
2022/01/20 07:17:04;;;;;;;26.23;24.10;;;;;;;23.68;21.28;95534.38;7293027;19;137726;-54
2022/01/20 07:19:29;;;;;;;26.63;24.33;;;;;;;23.74;21.63;95513.72;7295585;19;137022;-52
2022/01/20 07:21:55;;;;;;;26.20;24.00;;;;;;;23.53;21.49;95531.19;7281663;19;137055;-52
2022/01/20 07:24:20;;;;;;;26.07;23.93;;;;;;;23.45;22.16;95506.00;7294555;19;137683;-53
2022/01/20 07:26:46;;;;;;;24.73;22.70;;;;;;;23.43;22.25;95521.50;7295837;19;136811;-53
2022/01/20 07:29:11;;;;;;;25.73;23.57;;;;;;;23.40;22.15;95503.44;7290882;19;137295;-53
2022/01/20 07:31:37;;;;;;;23.50;21.50;;;;;;;23.38;21.72;95495.72;7280897;19;138170;-53
2022/01/20 07:34:03;;;;;;;23.10;21.10;;;;;;;23.36;22.04;95505.91;7295050;19;137297;-53
2022/01/20 07:36:28;;;;;;;23.20;21.20;;;;;;;23.39;22.25;95504.50;7294693;19;136726;-53
2022/01/20 07:38:54;;;;;;;22.83;20.90;;;;;;;23.38;21.90;95514.41;7294944;19;136955;-54
2022/01/20 07:41:20;;;;;;;23.63;21.53;;;;;;;23.40;21.64;95506.09;7295592;19;136959;-53
2022/01/20 07:43:46;;;;;;;21.70;19.80;;;;;;;23.39;21.97;95502.63;7280933;19;137135;-52
2022/01/20 07:46:11;;;;;;;22.30;20.50;;;;;;;23.42;22.27;95506.59;7294029;19;136987;-54
2022/01/20 07:48:37;;;;;;;22.53;20.73;;;;;;;23.40;21.71;95503.44;7294184;19;136857;-52
2022/01/20 07:51:05;;;;;;;21.13;19.43;;;;;;;23.40;21.89;95506.09;7294762;19;137575;-52
2022/01/20 07:53:35;;;;;;;21.47;19.63;;;;;;;23.43;22.22;95508.16;7281313;19;139394;-52
2022/01/20 07:56:02;;;;;;;20.30;18.50;;;;;;;23.43;21.99;95508.16;7294457;19;136802;-53
2022/01/20 07:58:27;;;;;;;19.57;17.97;;;;;;;23.44;21.66;95509.75;7296166;19;137880;-52
2022/01/20 08:00:53;;;;;;;20.53;18.90;;;;;;;23.40;22.06;95508.75;7293650;19;137684;-52
2022/01/20 08:03:18;;;;;;;20.63;18.93;;;;;;;23.40;22.21;95511.44;7293839;19;137080;-52
2022/01/20 08:05:44;;;;;;;20.00;18.30;;;;;;;23.41;21.75;95513.78;7278357;19;137126;-52
2022/01/20 08:08:09;;;;;;;20.03;18.33;;;;;;;23.42;22.12;95519.91;7294005;19;136835;-52
2022/01/20 08:10:35;;;;;;;20.30;18.63;;;;;;;23.39;21.67;95523.19;7294222;19;137640;-52
2022/01/20 08:13:03;;;;;;;19.80;18.10;;;;;;;23.38;21.76;95526.94;7293705;19;137074;-52
2022/01/20 08:15:29;;;;;;;18.40;16.90;;;;;;;23.37;22.05;95530.69;7279921;19;136885;-52
2022/01/20 08:17:54;;;;;;;19.23;17.47;;;;;;;23.34;21.77;95517.94;7291471;19;137005;-52
2022/01/20 08:20:20;;;;;;;19.10;17.47;;;;;;;23.34;22.34;95518.72;7291938;19;140482;-52
2022/01/20 08:22:45;;;;;;;19.40;17.70;;;;;;;23.33;22.01;95511.81;7293122;19;137459;-54
2022/01/20 08:25:14;;;;;;;20.47;18.73;;;;;;;23.34;22.42;95513.38;7294070;19;136855;-53
2022/01/20 08:27:41;;;;;;;22.07;20.17;;;;;;;23.32;22.17;95496.88;7280605;19;137034;-52
2022/01/20 08:30:09;;;;;;;21.30;19.47;;;;;;;23.34;21.89;95493.94;7293464;19;138315;-52
2022/01/20 08:32:34;;;;;;;24.97;22.80;;;;;;;23.34;22.06;95491.25;7293457;19;137110;-52
2022/01/20 08:35:04;;;;;;;23.83;21.83;;;;;;;23.33;22.38;95497.69;7293365;19;137787;-53
2022/01/20 08:37:30;;;;;;;23.83;21.87;;;;;;;23.32;22.76;95504.88;7280061;19;142129;-54
2022/01/20 08:39:56;;;;;;;23.47;21.37;;;;;;;23.30;22.07;95499.06;7293119;19;137016;-52
2022/01/20 08:42:22;;;;;;;22.67;20.63;;;;;;;23.30;22.52;95500.94;7299692;19;137220;-51
2022/01/20 08:44:48;;;;;;;23.83;21.73;;;;;;;23.30;22.34;95490.28;7299846;19;136929;-51
2022/01/20 08:47:17;;;;;;;22.90;20.90;;;;;;;23.28;22.41;95485.25;7300094;19;137044;-54
2022/01/20 08:49:46;;;;;;;22.07;20.23;;;;;;;23.27;22.33;95493.53;7286199;19;137448;-53
2022/01/20 08:52:12;;;;;;;26.73;24.40;;;;;;;23.25;22.46;95485.06;7299899;19;138724;-52
2022/01/20 08:54:37;;;;;;;25.67;23.43;;;;;;;23.24;22.20;95483.47;7299897;19;138586;-52
2022/01/20 08:57:04;;;;;;;23.07;21.13;;;;;;;23.22;22.21;95481.09;7299103;19;137655;-53
2022/01/20 08:59:29;;;;;;;24.10;21.90;;;;;;;23.22;22.05;95489.09;7286153;19;137646;-52
2022/01/20 09:01:55;;;;;;;23.83;21.57;;;;;;;23.20;22.50;95487.81;7298912;19;137561;-52
2022/01/20 09:04:20;;;;;;;25.63;23.23;;;;;;;23.18;22.62;95481.97;7299151;19;136907;-53
2022/01/20 09:06:46;;;;;;;24.27;22.27;;;;;;;23.16;22.55;95484.16;7296210;19;137496;-52
2022/01/20 09:09:12;;;;;;;23.17;21.17;;;;;;;23.15;22.61;95479.91;7300053;19;137849;-52
2022/01/20 09:11:49;;;;;;;23.63;21.67;;;;;;;23.14;22.16;95481.78;7285491;19;137273;-53
2022/01/20 09:16:58;;;;;;;21.57;19.70;;;;;;;23.14;22.44;95478.31;7298214;19;136903;-53
2022/01/20 09:19:24;;;;;;;21.60;19.80;;;;;;;23.13;22.32;95482.06;7299546;19;136966;-52
2022/01/20 09:21:49;;;;;;;22.37;20.57;;;;;;;23.12;22.64;95473.28;7285557;19;138157;-53
2022/01/20 09:24:15;;;;;;;20.50;18.70;;;;;;;23.14;22.32;95473.00;7299261;19;136833;-53
2022/01/20 09:26:40;;;;;;;20.50;18.70;;;;;;;23.15;22.20;95470.03;7299407;19;136985;-52
2022/01/20 09:29:06;;;;;;;21.87;19.80;;;;;;;23.15;22.55;95470.03;7298636;19;137358;-53
2022/01/20 09:31:37;;;;;;;22.67;20.73;;;;;;;23.15;22.03;95467.34;7299304;19;137432;-53
2022/01/20 09:34:02;;;;;;;22.40;20.40;;;;;;;23.15;22.29;95453.25;7285128;19;137143;-53
2022/01/20 09:36:28;;;;;;;24.43;22.20;;;;;;;23.15;22.66;95459.38;7298155;19;136914;-53
2022/01/20 09:38:53;;;;;;;23.17;21.17;;;;;;;23.16;22.23;95452.16;7299120;19;136860;-55
2022/01/20 09:41:19;;;;;;;23.13;21.13;;;;;;;23.18;22.29;95449.97;7298928;19;136941;-52
2022/01/20 09:43:44;;;;;;;25.33;23.03;;;;;;;23.19;22.85;95440.94;7284650;19;137466;-52
2022/01/20 09:46:10;;;;;;;28.90;26.33;;;;;;;23.17;22.89;95440.41;7298106;19;137933;-52
2022/01/20 09:48:35;;;;;;;28.23;25.50;;;;;;;23.14;22.32;95431.13;7297969;19;137594;-52
2022/01/20 09:51:03;;;;;;;24.13;21.50;;;;;;;23.20;22.97;95429.97;7296718;19;137248;-52
2022/01/20 09:53:29;;;;;;;25.30;22.87;;;;;;;23.22;23.35;95421.66;7295181;19;138583;-52
2022/01/20 09:55:56;;;;;;;24.97;22.70;;;;;;;23.27;23.18;95422.34;7284186;19;137358;-52
2022/01/20 09:58:22;;;;;;;26.00;23.60;;;;;;;23.29;22.83;95411.38;7295031;19;136942;-53
2022/01/20 10:00:48;;;;;;;28.40;25.50;;;;;;;23.32;23.00;95413.44;7298830;19;137592;-53
2022/01/20 10:03:16;;;;;;;27.73;25.10;;;;;;;23.33;23.02;95407.03;7298129;19;136921;-52
2022/01/20 10:05:50;;;;;;;30.00;27.30;;;;;;;23.33;23.00;95399.81;7282205;19;136991;-53
2022/01/20 10:08:24;;;;;;;29.00;26.20;;;;;;;23.36;22.53;95395.78;7298094;19;137242;-52
2022/01/20 10:10:58;;;;;;;28.50;25.90;;;;;;;23.37;22.81;95389.38;7297226;19;137544;-55
2022/01/20 10:13:27;;;;;;;31.00;28.10;;;;;;;23.38;23.37;95385.63;7295371;19;137081;-53
2022/01/20 10:16:03;;;;;;;28.90;26.20;;;;;;;23.38;23.65;95382.94;7298117;19;138215;-53
2022/01/20 10:18:30;;;;;;;28.17;25.53;;;;;;;23.41;22.94;95383.13;7281673;19;137443;-53
2022/01/20 10:20:58;;;;;;;27.53;24.90;;;;;;;23.41;23.71;95377.00;7294525;19;137719;-56
2022/01/20 10:23:38;;;;;;;28.80;26.00;;;;;;;23.40;23.32;95376.22;7285679;19;137025;-53
2022/01/20 10:26:15;;;;;;;29.10;26.30;;;;;;;23.42;23.74;95373.25;7298326;19;137584;-51
2022/01/20 10:28:47;;;;;;;26.70;24.10;;;;;;;23.42;23.81;95363.38;7284219;19;140726;-51
2022/01/20 10:31:15;;;;;;;27.30;24.50;;;;;;;23.41;23.87;95361.00;7296508;19;137518;-52
2022/01/20 10:33:43;;;;;;;28.23;23.90;;;;;;;23.39;23.85;95361.31;7297095;19;137119;-55
2022/01/20 10:36:11;;;;;;;27.20;24.57;;;;;;;23.39;24.39;95352.53;7296610;19;136898;-51
2022/01/20 10:38:37;;;;;;;26.80;24.33;;;;;;;23.40;23.76;95346.09;7281686;19;137885;-52
2022/01/20 10:41:04;;;;;;;26.83;24.33;;;;;;;23.38;24.26;95345.63;7296948;19;137684;-52
2022/01/20 10:43:35;;;;;;;25.37;23.07;;;;;;;23.40;24.43;95340.78;7296368;19;137444;-52
2022/01/20 10:46:05;;;;;;;24.83;22.47;;;;;;;23.46;23.82;95338.78;7296987;19;137673;-50
2022/01/20 10:48:31;;;;;;;24.37;21.97;;;;;;;23.48;23.93;95334.72;7296207;19;137003;-52
2022/01/20 10:50:56;;;;;;;24.67;22.40;;;;;;;23.47;24.14;95322.47;7282322;19;137364;-52
2022/01/20 10:53:24;;;;;;;25.30;23.00;;;;;;;23.47;24.24;95319.81;7296280;19;137517;-53
2022/01/20 10:55:50;;;;;;;24.73;22.33;;;;;;;23.47;24.15;95311.81;7296050;19;137002;-51
2022/01/20 10:58:22;;;;;;;24.87;22.57;;;;;;;23.48;23.70;95305.38;7292904;19;137334;-52
2022/01/20 11:00:50;;;;;;;23.73;21.53;;;;;;;23.48;24.27;95299.25;7283526;19;138472;-52
2022/01/20 11:03:16;;;;;;;24.17;21.80;;;;;;;23.48;23.85;95300.03;7295164;19;137356;-52
2022/01/20 11:05:50;;;;;;;25.13;22.90;;;;;;;23.47;23.98;95298.47;7293654;19;137050;-52
2022/01/20 11:08:16;;;;;;;24.57;22.30;;;;;;;23.45;23.47;95292.66;7295254;19;137250;-50
2022/01/20 11:10:42;;;;;;;25.23;22.73;;;;;;;23.45;23.73;95284.66;7295166;19;137062;-52
2022/01/20 11:13:10;;;;;;;25.57;23.10;;;;;;;23.46;23.54;95290.78;7280948;19;137012;-52
2022/01/20 11:15:36;;;;;;;24.93;22.60;;;;;;;23.43;24.06;95276.16;7295444;19;136837;-52
2022/01/20 11:18:03;;;;;;;27.37;24.73;;;;;;;23.41;23.91;95278.34;7293681;19;137010;-52
2022/01/20 11:20:32;;;;;;;25.90;23.40;;;;;;;23.41;24.04;95281.81;7294806;19;137274;-51
2022/01/20 11:23:01;;;;;;;25.10;22.90;;;;;;;23.40;24.09;95274.91;7282493;19;139085;-50
2022/01/20 11:25:30;;;;;;;25.33;22.63;;;;;;;23.39;24.05;95265.31;7294844;19;136889;-53
2022/01/20 11:28:17;;;;;;;26.20;23.70;;;;;;;23.39;23.70;95262.66;7282936;19;139049;-54
2022/01/20 11:31:03;;;;;;;26.10;22.60;;;;;;;23.59;23.63;95255.28;7284830;19;137634;-52
2022/01/20 11:33:36;;;;;;;24.43;21.80;;;;;;;23.70;23.56;95257.44;7282694;19;137564;-55
2022/01/20 11:36:04;;;;;;;24.97;22.60;;;;;;;23.80;23.93;95247.56;7285677;19;137951;-54
2022/01/20 11:38:43;;;;;;;23.70;21.50;;;;;;;23.80;23.64;95239.56;7285510;19;136937;-52
2022/01/20 11:41:10;;;;;;;23.43;21.47;;;;;;;23.82;24.03;95237.38;7282959;19;137673;-55
2022/01/20 11:43:42;;;;;;;22.73;20.63;;;;;;;23.83;24.20;95242.41;7286329;19;137295;-53
2022/01/20 11:46:18;;;;;;;22.70;20.40;;;;;;;23.87;24.11;95234.59;7270663;19;137671;-53
2022/01/20 11:49:01;;;;;;;21.80;19.73;;;;;;;23.88;23.62;95236.19;7286419;19;138154;-54
2022/01/20 11:51:40;;;;;;;21.83;19.73;;;;;;;23.87;23.72;95238.06;7260607;19;138503;-53
2022/01/20 11:54:06;;;;;;;21.33;19.40;;;;;;;23.87;23.98;95230.06;7286231;19;137427;-51
2022/01/20 11:56:37;;;;;;;21.00;19.20;;;;;;;23.87;24.02;95223.94;7272729;19;139981;-52
2022/01/20 11:59:04;;;;;;;20.27;18.27;;;;;;;23.87;23.83;95215.94;7287787;19;138112;-53
2022/01/20 12:01:41;;;;;;;20.30;18.30;;;;;;;23.90;23.81;95218.78;7280427;19;137097;-52
2022/01/20 12:04:06;;;;;;;19.73;18.00;;;;;;;23.88;23.93;95206.84;7285570;19;137516;-52
2022/01/20 12:06:43;;;;;;;19.47;17.63;;;;;;;23.88;23.93;95198.81;7279221;19;137405;-53
2022/01/20 12:09:08;;;;;;;19.80;17.93;;;;;;;23.89;23.93;95206.53;7285861;19;138516;-60
2022/01/20 12:11:37;;;;;;;19.73;17.90;;;;;;;23.93;24.45;95202.13;7279889;19;138042;-54